sensor_id;sensor_type;location;lat;lon;timestamp;temperature;humidity
21559;DHT22;10940;48.890;8.240;2022-10-16T00:01:36;15.20;99.90
21559;DHT22;10940;48.890;8.240;2022-10-16T00:04:02;15.20;99.90
21559;DHT22;10940;48.890;8.240;2022-10-16T00:06:28;15.10;99.90
21559;DHT22;10940;48.890;8.240;2022-10-16T00:08:55;15.20;99.90
21559;DHT22;10940;48.890;8.240;2022-10-16T00:11:23;15.10;99.90
21559;DHT22;10940;48.890;8.240;2022-10-16T00:13:50;15.10;99.90
21559;DHT22;10940;48.890;8.240;2022-10-16T00:16:18;15.10;99.90
21559;DHT22;10940;48.890;8.240;2022-10-16T00:18:44;15.10;99.90
21559;DHT22;10940;48.890;8.240;2022-10-16T00:21:16;15.10;99.90
21559;DHT22;10940;48.890;8.240;2022-10-16T00:23:42;15.10;99.90
21559;DHT22;10940;48.890;8.240;2022-10-16T00:26:11;15.10;99.90
21559;DHT22;10940;48.890;8.240;2022-10-16T00:28:37;15.00;99.90
21559;DHT22;10940;48.890;8.240;2022-10-16T00:31:05;15.00;99.90
21559;DHT22;10940;48.890;8.240;2022-10-16T00:33:31;15.00;99.90
21559;DHT22;10940;48.890;8.240;2022-10-16T00:36:01;15.00;99.90
21559;DHT22;10940;48.890;8.240;2022-10-16T00:38:27;15.00;99.90
21559;DHT22;10940;48.890;8.240;2022-10-16T00:40:53;15.00;99.90
21559;DHT22;10940;48.890;8.240;2022-10-16T00:43:51;15.00;99.90
21559;DHT22;10940;48.890;8.240;2022-10-16T00:46:23;15.00;99.90
21559;DHT22;10940;48.890;8.240;2022-10-16T00:51:38;15.00;99.90
21559;DHT22;10940;48.890;8.240;2022-10-16T00:54:14;15.10;99.90
21559;DHT22;10940;48.890;8.240;2022-10-16T00:56:41;15.10;99.90
21559;DHT22;10940;48.890;8.240;2022-10-16T00:59:15;15.10;99.90
21559;DHT22;10940;48.890;8.240;2022-10-16T01:01:41;15.10;99.90
21559;DHT22;10940;48.890;8.240;2022-10-16T01:04:07;15.10;99.90
21559;DHT22;10940;48.890;8.240;2022-10-16T01:06:51;15.10;99.90
21559;DHT22;10940;48.890;8.240;2022-10-16T01:09:25;15.10;99.90
21559;DHT22;10940;48.890;8.240;2022-10-16T01:12:08;15.10;99.90
21559;DHT22;10940;48.890;8.240;2022-10-16T01:14:53;15.10;99.90
21559;DHT22;10940;48.890;8.240;2022-10-16T01:17:41;15.10;99.90
21559;DHT22;10940;48.890;8.240;2022-10-16T01:26:20;15.10;99.90
21559;DHT22;10940;48.890;8.240;2022-10-16T01:28:56;15.10;99.90
21559;DHT22;10940;48.890;8.240;2022-10-16T01:31:29;15.00;99.90
21559;DHT22;10940;48.890;8.240;2022-10-16T01:34:24;15.10;99.90
21559;DHT22;10940;48.890;8.240;2022-10-16T01:36:57;15.00;99.90
21559;DHT22;10940;48.890;8.240;2022-10-16T01:39:29;15.00;99.90
21559;DHT22;10940;48.890;8.240;2022-10-16T01:42:06;15.00;99.90
21559;DHT22;10940;48.890;8.240;2022-10-16T01:44:34;15.00;99.90
21559;DHT22;10940;48.890;8.240;2022-10-16T01:47:02;15.00;99.90
21559;DHT22;10940;48.890;8.240;2022-10-16T01:49:32;15.00;99.90
21559;DHT22;10940;48.890;8.240;2022-10-16T01:52:00;15.00;99.90
21559;DHT22;10940;48.890;8.240;2022-10-16T01:54:28;15.00;99.90
21559;DHT22;10940;48.890;8.240;2022-10-16T01:56:56;15.00;99.90
21559;DHT22;10940;48.890;8.240;2022-10-16T01:59:25;15.00;99.90
21559;DHT22;10940;48.890;8.240;2022-10-16T02:01:59;15.00;99.90
21559;DHT22;10940;48.890;8.240;2022-10-16T02:04:36;15.00;99.90
21559;DHT22;10940;48.890;8.240;2022-10-16T02:07:03;15.10;99.90
21559;DHT22;10940;48.890;8.240;2022-10-16T02:09:30;15.10;99.90
21559;DHT22;10940;48.890;8.240;2022-10-16T02:11:59;15.10;99.90
21559;DHT22;10940;48.890;8.240;2022-10-16T02:14:28;15.10;99.90
21559;DHT22;10940;48.890;8.240;2022-10-16T02:16:54;15.10;99.90
21559;DHT22;10940;48.890;8.240;2022-10-16T02:19:21;15.10;99.90
21559;DHT22;10940;48.890;8.240;2022-10-16T02:27:24;15.00;99.90
21559;DHT22;10940;48.890;8.240;2022-10-16T02:30:02;15.00;99.90
21559;DHT22;10940;48.890;8.240;2022-10-16T02:32:33;15.10;99.90
21559;DHT22;10940;48.890;8.240;2022-10-16T02:35:00;15.00;99.90
21559;DHT22;10940;48.890;8.240;2022-10-16T02:37:26;15.00;99.90
21559;DHT22;10940;48.890;8.240;2022-10-16T02:39:54;15.00;99.90
21559;DHT22;10940;48.890;8.240;2022-10-16T02:42:20;15.00;99.90
21559;DHT22;10940;48.890;8.240;2022-10-16T02:44:45;15.00;99.90
21559;DHT22;10940;48.890;8.240;2022-10-16T02:47:11;15.00;99.90
21559;DHT22;10940;48.890;8.240;2022-10-16T02:49:37;15.00;99.90
21559;DHT22;10940;48.890;8.240;2022-10-16T02:52:03;15.00;99.90
21559;DHT22;10940;48.890;8.240;2022-10-16T02:54:29;14.90;99.90
21559;DHT22;10940;48.890;8.240;2022-10-16T02:56:54;14.90;99.90
21559;DHT22;10940;48.890;8.240;2022-10-16T02:59:20;14.90;99.90
21559;DHT22;10940;48.890;8.240;2022-10-16T03:01:45;14.90;99.90
21559;DHT22;10940;48.890;8.240;2022-10-16T03:04:11;14.90;99.90
21559;DHT22;10940;48.890;8.240;2022-10-16T03:06:37;14.90;99.90
21559;DHT22;10940;48.890;8.240;2022-10-16T03:09:02;14.80;99.90
21559;DHT22;10940;48.890;8.240;2022-10-16T03:11:28;14.80;99.90
21559;DHT22;10940;48.890;8.240;2022-10-16T03:13:53;14.70;99.90
21559;DHT22;10940;48.890;8.240;2022-10-16T03:16:19;14.80;99.90
21559;DHT22;10940;48.890;8.240;2022-10-16T03:18:48;14.70;99.90
21559;DHT22;10940;48.890;8.240;2022-10-16T03:21:15;14.70;99.90
21559;DHT22;10940;48.890;8.240;2022-10-16T03:23:41;14.60;99.90
21559;DHT22;10940;48.890;8.240;2022-10-16T03:26:06;14.60;99.90
21559;DHT22;10940;48.890;8.240;2022-10-16T03:28:32;14.60;99.90
21559;DHT22;10940;48.890;8.240;2022-10-16T03:30:57;14.60;99.90
21559;DHT22;10940;48.890;8.240;2022-10-16T03:33:23;14.60;99.90
21559;DHT22;10940;48.890;8.240;2022-10-16T03:35:53;14.70;99.90
21559;DHT22;10940;48.890;8.240;2022-10-16T03:38:19;14.70;99.90
21559;DHT22;10940;48.890;8.240;2022-10-16T03:40:45;14.70;99.90
21559;DHT22;10940;48.890;8.240;2022-10-16T03:43:10;14.70;99.90
21559;DHT22;10940;48.890;8.240;2022-10-16T03:45:36;14.70;99.90
21559;DHT22;10940;48.890;8.240;2022-10-16T03:48:02;14.70;99.90
21559;DHT22;10940;48.890;8.240;2022-10-16T03:50:29;14.80;99.90
21559;DHT22;10940;48.890;8.240;2022-10-16T03:52:54;14.80;99.90
21559;DHT22;10940;48.890;8.240;2022-10-16T03:55:20;14.80;99.90
21559;DHT22;10940;48.890;8.240;2022-10-16T03:57:45;14.80;99.90
21559;DHT22;10940;48.890;8.240;2022-10-16T04:00:12;14.80;99.90
21559;DHT22;10940;48.890;8.240;2022-10-16T04:02:38;14.80;99.90
21559;DHT22;10940;48.890;8.240;2022-10-16T04:05:04;14.80;99.90
21559;DHT22;10940;48.890;8.240;2022-10-16T04:07:30;14.80;99.90
21559;DHT22;10940;48.890;8.240;2022-10-16T04:09:55;14.80;99.90
21559;DHT22;10940;48.890;8.240;2022-10-16T04:12:22;14.80;99.90
21559;DHT22;10940;48.890;8.240;2022-10-16T04:14:48;14.80;99.90
21559;DHT22;10940;48.890;8.240;2022-10-16T04:17:13;14.90;99.90
21559;DHT22;10940;48.890;8.240;2022-10-16T04:19:39;14.90;99.90
21559;DHT22;10940;48.890;8.240;2022-10-16T04:22:04;14.90;99.90
21559;DHT22;10940;48.890;8.240;2022-10-16T04:24:30;14.90;99.90
21559;DHT22;10940;48.890;8.240;2022-10-16T04:26:56;14.90;99.90
21559;DHT22;10940;48.890;8.240;2022-10-16T04:29:21;14.90;99.90
21559;DHT22;10940;48.890;8.240;2022-10-16T04:31:47;14.90;99.90
21559;DHT22;10940;48.890;8.240;2022-10-16T04:34:13;14.90;99.90
21559;DHT22;10940;48.890;8.240;2022-10-16T04:36:38;14.90;99.90
21559;DHT22;10940;48.890;8.240;2022-10-16T04:39:04;15.00;99.90
21559;DHT22;10940;48.890;8.240;2022-10-16T04:41:29;15.00;99.90
21559;DHT22;10940;48.890;8.240;2022-10-16T04:43:55;15.00;99.90
21559;DHT22;10940;48.890;8.240;2022-10-16T04:46:20;15.00;99.90
21559;DHT22;10940;48.890;8.240;2022-10-16T04:48:46;14.90;99.90
21559;DHT22;10940;48.890;8.240;2022-10-16T04:51:12;14.90;99.90
21559;DHT22;10940;48.890;8.240;2022-10-16T04:53:38;14.90;99.90
21559;DHT22;10940;48.890;8.240;2022-10-16T04:56:03;14.90;99.90
21559;DHT22;10940;48.890;8.240;2022-10-16T04:58:29;14.90;99.90
21559;DHT22;10940;48.890;8.240;2022-10-16T05:00:55;14.90;99.90
21559;DHT22;10940;48.890;8.240;2022-10-16T05:03:20;14.90;99.90
21559;DHT22;10940;48.890;8.240;2022-10-16T05:05:46;14.80;99.90
21559;DHT22;10940;48.890;8.240;2022-10-16T05:08:13;14.90;99.90
21559;DHT22;10940;48.890;8.240;2022-10-16T05:10:41;14.90;99.90
21559;DHT22;10940;48.890;8.240;2022-10-16T05:13:07;14.90;99.90
21559;DHT22;10940;48.890;8.240;2022-10-16T05:15:32;14.90;99.90
21559;DHT22;10940;48.890;8.240;2022-10-16T05:17:58;14.90;99.90
21559;DHT22;10940;48.890;8.240;2022-10-16T05:20:24;14.90;99.90
21559;DHT22;10940;48.890;8.240;2022-10-16T05:22:49;15.00;99.90
21559;DHT22;10940;48.890;8.240;2022-10-16T05:25:15;14.90;99.90
21559;DHT22;10940;48.890;8.240;2022-10-16T05:27:41;14.90;99.90
21559;DHT22;10940;48.890;8.240;2022-10-16T05:30:07;14.90;99.90
21559;DHT22;10940;48.890;8.240;2022-10-16T05:32:33;14.90;99.90
21559;DHT22;10940;48.890;8.240;2022-10-16T05:34:58;14.90;99.90
21559;DHT22;10940;48.890;8.240;2022-10-16T05:37:27;14.90;99.90
21559;DHT22;10940;48.890;8.240;2022-10-16T05:39:52;14.90;99.90
21559;DHT22;10940;48.890;8.240;2022-10-16T05:42:18;14.90;99.90
21559;DHT22;10940;48.890;8.240;2022-10-16T05:44:44;14.90;99.90
21559;DHT22;10940;48.890;8.240;2022-10-16T05:47:12;14.90;99.90
21559;DHT22;10940;48.890;8.240;2022-10-16T05:49:37;14.90;99.90
21559;DHT22;10940;48.890;8.240;2022-10-16T05:52:03;14.80;99.90
21559;DHT22;10940;48.890;8.240;2022-10-16T05:54:29;14.80;99.90
21559;DHT22;10940;48.890;8.240;2022-10-16T05:56:54;14.80;99.90
21559;DHT22;10940;48.890;8.240;2022-10-16T05:59:20;14.80;99.90
21559;DHT22;10940;48.890;8.240;2022-10-16T06:01:46;14.80;99.90
21559;DHT22;10940;48.890;8.240;2022-10-16T06:04:11;14.80;99.90
21559;DHT22;10940;48.890;8.240;2022-10-16T06:06:37;14.80;99.90
21559;DHT22;10940;48.890;8.240;2022-10-16T06:09:03;14.80;99.90
21559;DHT22;10940;48.890;8.240;2022-10-16T06:11:30;14.80;99.90
21559;DHT22;10940;48.890;8.240;2022-10-16T06:13:58;14.80;99.90
21559;DHT22;10940;48.890;8.240;2022-10-16T06:16:25;14.80;99.90
21559;DHT22;10940;48.890;8.240;2022-10-16T06:18:52;14.80;99.90
21559;DHT22;10940;48.890;8.240;2022-10-16T06:21:20;14.90;99.90
21559;DHT22;10940;48.890;8.240;2022-10-16T06:23:47;14.90;99.90
21559;DHT22;10940;48.890;8.240;2022-10-16T06:26:16;14.90;99.90
21559;DHT22;10940;48.890;8.240;2022-10-16T06:28:42;14.90;99.90
21559;DHT22;10940;48.890;8.240;2022-10-16T06:31:09;15.00;99.90
21559;DHT22;10940;48.890;8.240;2022-10-16T06:33:36;15.10;99.90
21559;DHT22;10940;48.890;8.240;2022-10-16T06:36:06;15.10;99.90
21559;DHT22;10940;48.890;8.240;2022-10-16T06:38:34;15.10;99.90
21559;DHT22;10940;48.890;8.240;2022-10-16T06:41:00;15.10;99.90
21559;DHT22;10940;48.890;8.240;2022-10-16T06:43:26;15.10;99.90
21559;DHT22;10940;48.890;8.240;2022-10-16T06:45:55;15.10;99.90
21559;DHT22;10940;48.890;8.240;2022-10-16T06:48:22;15.20;99.90
21559;DHT22;10940;48.890;8.240;2022-10-16T06:50:56;15.20;99.90
21559;DHT22;10940;48.890;8.240;2022-10-16T06:53:22;15.20;99.90
21559;DHT22;10940;48.890;8.240;2022-10-16T06:55:48;15.20;99.90
21559;DHT22;10940;48.890;8.240;2022-10-16T06:58:14;15.20;99.90
21559;DHT22;10940;48.890;8.240;2022-10-16T07:00:39;15.20;99.90
21559;DHT22;10940;48.890;8.240;2022-10-16T07:03:05;15.20;99.90
21559;DHT22;10940;48.890;8.240;2022-10-16T07:05:31;15.30;99.90
21559;DHT22;10940;48.890;8.240;2022-10-16T07:07:56;15.30;99.90
21559;DHT22;10940;48.890;8.240;2022-10-16T07:10:22;15.40;99.90
21559;DHT22;10940;48.890;8.240;2022-10-16T07:12:49;15.50;99.90
21559;DHT22;10940;48.890;8.240;2022-10-16T07:15:15;15.50;99.90
21559;DHT22;10940;48.890;8.240;2022-10-16T07:17:40;15.60;99.90
21559;DHT22;10940;48.890;8.240;2022-10-16T07:20:06;15.60;99.90
21559;DHT22;10940;48.890;8.240;2022-10-16T07:22:32;15.60;99.90
21559;DHT22;10940;48.890;8.240;2022-10-16T07:24:58;15.60;99.90
21559;DHT22;10940;48.890;8.240;2022-10-16T07:27:24;15.70;99.90
21559;DHT22;10940;48.890;8.240;2022-10-16T07:29:49;15.80;99.90
21559;DHT22;10940;48.890;8.240;2022-10-16T07:32:15;15.80;99.90
21559;DHT22;10940;48.890;8.240;2022-10-16T07:34:41;15.80;99.90
21559;DHT22;10940;48.890;8.240;2022-10-16T07:37:07;15.80;99.90
21559;DHT22;10940;48.890;8.240;2022-10-16T07:39:33;16.00;99.90
21559;DHT22;10940;48.890;8.240;2022-10-16T07:41:58;16.00;99.90
21559;DHT22;10940;48.890;8.240;2022-10-16T07:44:24;16.00;99.90
21559;DHT22;10940;48.890;8.240;2022-10-16T07:46:50;16.10;99.90
21559;DHT22;10940;48.890;8.240;2022-10-16T07:49:15;16.20;99.90
21559;DHT22;10940;48.890;8.240;2022-10-16T07:51:41;16.20;99.90
21559;DHT22;10940;48.890;8.240;2022-10-16T07:54:11;16.20;99.90
21559;DHT22;10940;48.890;8.240;2022-10-16T07:56:36;16.30;99.90
21559;DHT22;10940;48.890;8.240;2022-10-16T07:59:02;16.30;99.90
21559;DHT22;10940;48.890;8.240;2022-10-16T08:01:28;16.40;99.90
21559;DHT22;10940;48.890;8.240;2022-10-16T08:03:53;16.40;99.90
21559;DHT22;10940;48.890;8.240;2022-10-16T08:06:20;16.50;99.90
21559;DHT22;10940;48.890;8.240;2022-10-16T08:08:46;16.50;99.90
21559;DHT22;10940;48.890;8.240;2022-10-16T08:11:12;16.60;99.90
21559;DHT22;10940;48.890;8.240;2022-10-16T08:13:39;16.70;99.90
21559;DHT22;10940;48.890;8.240;2022-10-16T08:16:05;16.70;99.90
21559;DHT22;10940;48.890;8.240;2022-10-16T08:18:37;16.80;99.90
21559;DHT22;10940;48.890;8.240;2022-10-16T08:21:04;16.80;99.90
21559;DHT22;10940;48.890;8.240;2022-10-16T08:23:30;16.90;99.90
21559;DHT22;10940;48.890;8.240;2022-10-16T08:26:02;16.90;99.90
21559;DHT22;10940;48.890;8.240;2022-10-16T08:28:27;17.00;99.90
21559;DHT22;10940;48.890;8.240;2022-10-16T08:30:53;17.00;99.90
21559;DHT22;10940;48.890;8.240;2022-10-16T08:33:18;17.00;99.90
21559;DHT22;10940;48.890;8.240;2022-10-16T08:35:52;17.20;99.90
21559;DHT22;10940;48.890;8.240;2022-10-16T08:38:19;17.20;99.90
21559;DHT22;10940;48.890;8.240;2022-10-16T08:40:45;17.30;99.90
21559;DHT22;10940;48.890;8.240;2022-10-16T08:48:43;17.40;99.90
21559;DHT22;10940;48.890;8.240;2022-10-16T08:51:14;17.50;99.90
21559;DHT22;10940;48.890;8.240;2022-10-16T08:53:54;17.60;99.90
21559;DHT22;10940;48.890;8.240;2022-10-16T08:56:20;17.60;99.90
21559;DHT22;10940;48.890;8.240;2022-10-16T08:58:46;17.70;99.90
21559;DHT22;10940;48.890;8.240;2022-10-16T09:01:15;17.80;99.90
21559;DHT22;10940;48.890;8.240;2022-10-16T09:15:32;18.20;99.90
21559;DHT22;10940;48.890;8.240;2022-10-16T09:21:00;18.30;99.90
21559;DHT22;10940;48.890;8.240;2022-10-16T09:23:32;18.40;99.90
21559;DHT22;10940;48.890;8.240;2022-10-16T09:25:59;18.40;99.90
21559;DHT22;10940;48.890;8.240;2022-10-16T09:28:25;18.50;99.90
21559;DHT22;10940;48.890;8.240;2022-10-16T09:30:51;18.60;99.90
21559;DHT22;10940;48.890;8.240;2022-10-16T09:33:19;18.60;99.90
21559;DHT22;10940;48.890;8.240;2022-10-16T09:35:51;18.70;99.90
21559;DHT22;10940;48.890;8.240;2022-10-16T09:38:25;18.80;99.90
21559;DHT22;10940;48.890;8.240;2022-10-16T09:40:52;18.80;99.90
21559;DHT22;10940;48.890;8.240;2022-10-16T09:46:01;18.90;99.90
21559;DHT22;10940;48.890;8.240;2022-10-16T09:48:49;18.90;99.90
21559;DHT22;10940;48.890;8.240;2022-10-16T09:51:22;19.00;99.90
21559;DHT22;10940;48.890;8.240;2022-10-16T09:53:48;19.00;99.90
21559;DHT22;10940;48.890;8.240;2022-10-16T09:56:25;19.00;99.90
21559;DHT22;10940;48.890;8.240;2022-10-16T09:58:53;19.00;99.90
21559;DHT22;10940;48.890;8.240;2022-10-16T10:01:19;19.00;99.90
21559;DHT22;10940;48.890;8.240;2022-10-16T10:03:45;19.10;99.90
21559;DHT22;10940;48.890;8.240;2022-10-16T10:06:18;19.10;99.90
21559;DHT22;10940;48.890;8.240;2022-10-16T10:11:49;19.30;99.90
21559;DHT22;10940;48.890;8.240;2022-10-16T10:16:43;19.40;99.90
21559;DHT22;10940;48.890;8.240;2022-10-16T10:19:20;19.40;99.90
21559;DHT22;10940;48.890;8.240;2022-10-16T10:21:47;19.50;99.90
21559;DHT22;10940;48.890;8.240;2022-10-16T10:24:15;19.50;99.90
21559;DHT22;10940;48.890;8.240;2022-10-16T10:27:05;19.40;99.90
21559;DHT22;10940;48.890;8.240;2022-10-16T10:35:33;19.60;99.90
21559;DHT22;10940;48.890;8.240;2022-10-16T10:38:05;19.70;99.90
21559;DHT22;10940;48.890;8.240;2022-10-16T10:49:03;20.30;99.90
21559;DHT22;10940;48.890;8.240;2022-10-16T10:52:01;20.50;99.90
21559;DHT22;10940;48.890;8.240;2022-10-16T10:57:10;20.70;99.90
21559;DHT22;10940;48.890;8.240;2022-10-16T11:03:05;20.90;99.90
21559;DHT22;10940;48.890;8.240;2022-10-16T11:08:27;21.00;99.90
21559;DHT22;10940;48.890;8.240;2022-10-16T11:11:04;21.00;99.90
21559;DHT22;10940;48.890;8.240;2022-10-16T11:13:44;21.10;99.90
21559;DHT22;10940;48.890;8.240;2022-10-16T11:16:28;21.20;99.90
21559;DHT22;10940;48.890;8.240;2022-10-16T11:18:59;21.30;99.90
21559;DHT22;10940;48.890;8.240;2022-10-16T11:21:30;21.30;99.90
21559;DHT22;10940;48.890;8.240;2022-10-16T11:23:58;21.40;99.90
21559;DHT22;10940;48.890;8.240;2022-10-16T11:26:33;21.50;99.90
21559;DHT22;10940;48.890;8.240;2022-10-16T11:29:01;21.50;99.90
21559;DHT22;10940;48.890;8.240;2022-10-16T11:31:45;21.60;99.90
21559;DHT22;10940;48.890;8.240;2022-10-16T11:34:36;21.60;99.90
21559;DHT22;10940;48.890;8.240;2022-10-16T11:37:30;21.60;99.90
21559;DHT22;10940;48.890;8.240;2022-10-16T11:40:05;21.60;99.90
21559;DHT22;10940;48.890;8.240;2022-10-16T11:42:45;21.70;99.90
21559;DHT22;10940;48.890;8.240;2022-10-16T11:45:26;21.70;99.90
21559;DHT22;10940;48.890;8.240;2022-10-16T11:48:23;21.60;99.90
21559;DHT22;10940;48.890;8.240;2022-10-16T11:51:06;21.70;99.90
21559;DHT22;10940;48.890;8.240;2022-10-16T11:56:12;21.50;99.90
21559;DHT22;10940;48.890;8.240;2022-10-16T12:01:26;21.50;99.90
21559;DHT22;10940;48.890;8.240;2022-10-16T12:03:59;21.50;99.90
21559;DHT22;10940;48.890;8.240;2022-10-16T12:06:44;21.60;99.90
21559;DHT22;10940;48.890;8.240;2022-10-16T12:09:31;21.50;99.90
21559;DHT22;10940;48.890;8.240;2022-10-16T12:11:58;21.40;99.90
21559;DHT22;10940;48.890;8.240;2022-10-16T12:14:43;21.40;99.90
21559;DHT22;10940;48.890;8.240;2022-10-16T12:17:35;21.30;99.90
21559;DHT22;10940;48.890;8.240;2022-10-16T12:22:55;21.30;99.90
21559;DHT22;10940;48.890;8.240;2022-10-16T12:25:33;21.20;99.90
21559;DHT22;10940;48.890;8.240;2022-10-16T12:30:31;21.20;99.90
21559;DHT22;10940;48.890;8.240;2022-10-16T12:33:19;21.20;99.90
21559;DHT22;10940;48.890;8.240;2022-10-16T12:35:46;21.20;99.90
21559;DHT22;10940;48.890;8.240;2022-10-16T12:38:25;21.30;99.90
21559;DHT22;10940;48.890;8.240;2022-10-16T12:43:45;21.30;99.90
21559;DHT22;10940;48.890;8.240;2022-10-16T12:48:38;21.30;99.90
21559;DHT22;10940;48.890;8.240;2022-10-16T13:21:38;20.70;99.90
21559;DHT22;10940;48.890;8.240;2022-10-16T13:24:11;20.60;99.90
21559;DHT22;10940;48.890;8.240;2022-10-16T13:29:10;20.50;99.90
21559;DHT22;10940;48.890;8.240;2022-10-16T13:31:38;20.40;99.90
21559;DHT22;10940;48.890;8.240;2022-10-16T13:34:05;20.30;99.90
21559;DHT22;10940;48.890;8.240;2022-10-16T13:36:43;20.30;99.90
21559;DHT22;10940;48.890;8.240;2022-10-16T13:39:14;20.30;99.90
21559;DHT22;10940;48.890;8.240;2022-10-16T13:41:42;20.30;99.90
21559;DHT22;10940;48.890;8.240;2022-10-16T13:44:18;20.30;99.90
21559;DHT22;10940;48.890;8.240;2022-10-16T13:46:44;20.30;99.90
21559;DHT22;10940;48.890;8.240;2022-10-16T13:49:15;20.20;99.90
21559;DHT22;10940;48.890;8.240;2022-10-16T13:51:47;20.10;99.90
21559;DHT22;10940;48.890;8.240;2022-10-16T13:54:18;20.10;99.90
21559;DHT22;10940;48.890;8.240;2022-10-16T13:56:44;20.10;99.90
21559;DHT22;10940;48.890;8.240;2022-10-16T13:59:27;20.00;99.90
21559;DHT22;10940;48.890;8.240;2022-10-16T14:01:58;19.90;99.90
21559;DHT22;10940;48.890;8.240;2022-10-16T14:04:32;20.00;99.90
21559;DHT22;10940;48.890;8.240;2022-10-16T14:06:58;20.00;99.90
21559;DHT22;10940;48.890;8.240;2022-10-16T14:09:29;20.10;99.90
21559;DHT22;10940;48.890;8.240;2022-10-16T14:12:06;20.20;99.90
21559;DHT22;10940;48.890;8.240;2022-10-16T14:14:47;20.30;99.90
21559;DHT22;10940;48.890;8.240;2022-10-16T14:17:15;20.40;99.90
21559;DHT22;10940;48.890;8.240;2022-10-16T14:19:46;20.60;99.90
21559;DHT22;10940;48.890;8.240;2022-10-16T14:22:32;20.80;99.90
21559;DHT22;10940;48.890;8.240;2022-10-16T14:24:58;20.80;99.90
21559;DHT22;10940;48.890;8.240;2022-10-16T14:27:35;20.80;99.90
21559;DHT22;10940;48.890;8.240;2022-10-16T14:30:18;20.80;99.90
21559;DHT22;10940;48.890;8.240;2022-10-16T14:32:59;20.70;99.90
21559;DHT22;10940;48.890;8.240;2022-10-16T14:38:00;20.80;99.90
21559;DHT22;10940;48.890;8.240;2022-10-16T14:40:36;20.90;99.90
21559;DHT22;10940;48.890;8.240;2022-10-16T14:43:03;21.00;99.90
21559;DHT22;10940;48.890;8.240;2022-10-16T14:45:32;21.10;99.90
21559;DHT22;10940;48.890;8.240;2022-10-16T14:48:00;21.10;99.90
21559;DHT22;10940;48.890;8.240;2022-10-16T14:50:26;21.10;99.90
21559;DHT22;10940;48.890;8.240;2022-10-16T14:52:53;21.10;99.90
21559;DHT22;10940;48.890;8.240;2022-10-16T14:55:19;21.00;99.90
21559;DHT22;10940;48.890;8.240;2022-10-16T14:57:45;20.90;99.90
21559;DHT22;10940;48.890;8.240;2022-10-16T15:00:22;20.90;99.90
21559;DHT22;10940;48.890;8.240;2022-10-16T15:02:49;20.90;99.90
21559;DHT22;10940;48.890;8.240;2022-10-16T15:05:23;20.90;99.90
21559;DHT22;10940;48.890;8.240;2022-10-16T15:07:50;20.90;99.90
21559;DHT22;10940;48.890;8.240;2022-10-16T15:10:17;20.90;99.90
21559;DHT22;10940;48.890;8.240;2022-10-16T15:12:43;20.90;99.90
21559;DHT22;10940;48.890;8.240;2022-10-16T15:17:58;20.90;99.90
21559;DHT22;10940;48.890;8.240;2022-10-16T15:20:27;20.90;99.90
21559;DHT22;10940;48.890;8.240;2022-10-16T15:22:54;20.90;99.90
21559;DHT22;10940;48.890;8.240;2022-10-16T15:25:33;20.80;99.90
21559;DHT22;10940;48.890;8.240;2022-10-16T15:28:00;20.80;99.90
21559;DHT22;10940;48.890;8.240;2022-10-16T15:30:26;20.70;99.90
21559;DHT22;10940;48.890;8.240;2022-10-16T15:32:52;20.60;99.90
21559;DHT22;10940;48.890;8.240;2022-10-16T15:35:18;20.60;99.90
21559;DHT22;10940;48.890;8.240;2022-10-16T15:37:43;20.50;99.90
21559;DHT22;10940;48.890;8.240;2022-10-16T15:40:10;20.50;99.90
21559;DHT22;10940;48.890;8.240;2022-10-16T15:42:35;20.50;99.90
21559;DHT22;10940;48.890;8.240;2022-10-16T15:45:01;20.50;99.90
21559;DHT22;10940;48.890;8.240;2022-10-16T15:47:28;20.40;99.90
21559;DHT22;10940;48.890;8.240;2022-10-16T15:49:54;20.40;99.90
21559;DHT22;10940;48.890;8.240;2022-10-16T15:52:19;20.40;99.90
21559;DHT22;10940;48.890;8.240;2022-10-16T15:54:45;20.30;99.90
21559;DHT22;10940;48.890;8.240;2022-10-16T15:57:10;20.30;99.90
21559;DHT22;10940;48.890;8.240;2022-10-16T15:59:36;20.30;99.90
21559;DHT22;10940;48.890;8.240;2022-10-16T16:02:01;20.20;99.90
21559;DHT22;10940;48.890;8.240;2022-10-16T16:04:30;20.10;99.90
21559;DHT22;10940;48.890;8.240;2022-10-16T16:06:55;20.00;99.90
21559;DHT22;10940;48.890;8.240;2022-10-16T16:09:21;19.90;99.90
21559;DHT22;10940;48.890;8.240;2022-10-16T16:11:47;19.90;99.90
21559;DHT22;10940;48.890;8.240;2022-10-16T16:14:13;19.80;99.90
21559;DHT22;10940;48.890;8.240;2022-10-16T16:16:39;19.80;99.90
21559;DHT22;10940;48.890;8.240;2022-10-16T16:19:05;19.70;99.90
21559;DHT22;10940;48.890;8.240;2022-10-16T16:21:36;19.70;99.90
21559;DHT22;10940;48.890;8.240;2022-10-16T16:24:04;19.70;99.90
21559;DHT22;10940;48.890;8.240;2022-10-16T16:26:35;19.60;99.90
21559;DHT22;10940;48.890;8.240;2022-10-16T16:29:03;19.50;99.90
21559;DHT22;10940;48.890;8.240;2022-10-16T16:31:30;19.50;99.90
21559;DHT22;10940;48.890;8.240;2022-10-16T16:33:57;19.40;99.90
21559;DHT22;10940;48.890;8.240;2022-10-16T16:36:23;19.20;99.90
21559;DHT22;10940;48.890;8.240;2022-10-16T16:38:49;19.20;99.90
21559;DHT22;10940;48.890;8.240;2022-10-16T16:41:18;19.00;99.90
21559;DHT22;10940;48.890;8.240;2022-10-16T16:43:44;18.90;99.90
21559;DHT22;10940;48.890;8.240;2022-10-16T16:46:10;18.90;99.90
21559;DHT22;10940;48.890;8.240;2022-10-16T16:48:37;18.80;99.90
21559;DHT22;10940;48.890;8.240;2022-10-16T16:51:08;18.80;99.90
21559;DHT22;10940;48.890;8.240;2022-10-16T16:53:35;18.70;99.90
21559;DHT22;10940;48.890;8.240;2022-10-16T16:56:05;18.60;99.90
21559;DHT22;10940;48.890;8.240;2022-10-16T16:58:31;18.50;99.90
21559;DHT22;10940;48.890;8.240;2022-10-16T17:00:57;18.40;99.90
21559;DHT22;10940;48.890;8.240;2022-10-16T17:03:34;18.30;99.90
21559;DHT22;10940;48.890;8.240;2022-10-16T17:06:03;18.10;99.90
21559;DHT22;10940;48.890;8.240;2022-10-16T17:08:30;18.00;99.90
21559;DHT22;10940;48.890;8.240;2022-10-16T17:10:56;17.90;99.90
21559;DHT22;10940;48.890;8.240;2022-10-16T17:13:28;17.80;99.90
21559;DHT22;10940;48.890;8.240;2022-10-16T17:15:54;17.60;99.90
21559;DHT22;10940;48.890;8.240;2022-10-16T17:18:22;17.60;99.90
21559;DHT22;10940;48.890;8.240;2022-10-16T17:20:49;17.50;99.90
21559;DHT22;10940;48.890;8.240;2022-10-16T17:23:16;17.40;99.90
21559;DHT22;10940;48.890;8.240;2022-10-16T17:25:42;17.30;99.90
21559;DHT22;10940;48.890;8.240;2022-10-16T17:28:09;17.20;99.90
21559;DHT22;10940;48.890;8.240;2022-10-16T17:30:37;17.20;99.90
21559;DHT22;10940;48.890;8.240;2022-10-16T17:33:03;17.30;99.90
21559;DHT22;10940;48.890;8.240;2022-10-16T17:35:35;17.20;99.90
21559;DHT22;10940;48.890;8.240;2022-10-16T17:38:01;17.20;99.90
21559;DHT22;10940;48.890;8.240;2022-10-16T17:40:26;17.10;99.90
21559;DHT22;10940;48.890;8.240;2022-10-16T17:42:52;17.00;99.90